createdAt,value
2023-03-19T00:00:35.887Z,9.90
2023-03-19T00:03:26.899Z,9.88
2023-03-19T00:05:57.910Z,9.86
2023-03-19T00:08:29.013Z,9.85
2023-03-19T00:10:59.849Z,9.85
2023-03-19T00:13:30.952Z,9.84
2023-03-19T00:16:02.200Z,9.82
2023-03-19T00:18:33.118Z,9.80
2023-03-19T00:21:03.925Z,9.77
2023-03-19T00:23:34.963Z,9.76
2023-03-19T00:26:05.948Z,9.75
2023-03-19T00:28:37.577Z,9.71
2023-03-19T00:31:12.455Z,9.66
2023-03-19T00:33:43.652Z,9.60
2023-03-19T00:36:16.402Z,9.54
2023-03-19T00:38:47.608Z,9.47
2023-03-19T00:41:20.965Z,9.37
2023-03-19T00:43:55.604Z,9.29
2023-03-19T00:46:27.635Z,9.17
2023-03-19T00:48:59.078Z,9.04
2023-03-19T00:51:29.925Z,8.95
2023-03-19T00:54:00.900Z,8.87
2023-03-19T00:56:31.737Z,8.85
2023-03-19T00:59:02.638Z,8.86
2023-03-19T01:01:33.504Z,8.87
2023-03-19T01:04:04.538Z,8.88
2023-03-19T01:06:35.503Z,8.92
2023-03-19T01:09:06.556Z,8.95
2023-03-19T01:11:37.337Z,8.95
2023-03-19T01:14:08.244Z,8.95
2023-03-19T01:16:39.135Z,8.98
2023-03-19T01:19:10.389Z,8.98
2023-03-19T01:21:43.179Z,8.99
2023-03-19T01:24:13.888Z,9.00
2023-03-19T01:26:44.779Z,8.99
2023-03-19T01:29:15.627Z,8.97
2023-03-19T01:31:46.589Z,8.94
2023-03-19T01:34:17.447Z,8.92
2023-03-19T01:36:49.229Z,8.91
2023-03-19T01:39:20.238Z,8.90
2023-03-19T01:41:52.047Z,8.87
2023-03-19T01:44:27.878Z,8.88
2023-03-19T01:46:58.924Z,8.88
2023-03-19T01:49:29.850Z,8.87
2023-03-19T01:52:01.080Z,8.85
2023-03-19T01:54:32.012Z,8.84
2023-03-19T01:57:03.894Z,8.82
2023-03-19T01:59:35.444Z,8.81
2023-03-19T02:02:08.042Z,8.80
2023-03-19T02:04:39.802Z,8.77
2023-03-19T02:07:10.813Z,8.74
2023-03-19T02:09:42.140Z,8.74
2023-03-19T02:12:13.400Z,8.74
2023-03-19T02:14:44.348Z,8.73
2023-03-19T02:17:15.256Z,8.69
2023-03-19T02:19:48.598Z,8.67
2023-03-19T02:22:20.708Z,8.65
2023-03-19T02:24:53.588Z,8.64
2023-03-19T02:27:24.461Z,8.63
2023-03-19T02:29:55.457Z,8.61
2023-03-19T02:32:27.194Z,8.61
2023-03-19T02:34:58.052Z,8.62
2023-03-19T02:37:32.009Z,8.61
2023-03-19T02:40:05.811Z,8.61
2023-03-19T02:42:36.529Z,8.59
2023-03-19T02:45:08.948Z,8.57
2023-03-19T02:47:39.797Z,8.56
2023-03-19T02:50:11.557Z,8.54
2023-03-19T02:52:42.328Z,8.52
2023-03-19T02:55:13.265Z,8.47
2023-03-19T02:57:44.018Z,8.43
2023-03-19T03:00:17.212Z,8.41
2023-03-19T03:02:48.146Z,8.33
2023-03-19T03:05:19.175Z,8.25
2023-03-19T03:07:50.104Z,8.17
2023-03-19T03:10:20.973Z,8.14
2023-03-19T03:12:51.798Z,8.14
2023-03-19T03:15:22.964Z,8.15
2023-03-19T03:17:53.778Z,8.16
2023-03-19T03:20:24.862Z,8.19
2023-03-19T03:22:55.591Z,8.22
2023-03-19T03:25:26.287Z,8.25
2023-03-19T03:27:57.129Z,8.28
2023-03-19T03:30:28.008Z,8.30
2023-03-19T03:32:58.913Z,8.32
2023-03-19T03:35:29.761Z,8.36
2023-03-19T03:38:00.677Z,8.38
2023-03-19T03:40:31.832Z,8.38
2023-03-19T03:43:02.584Z,8.39
2023-03-19T03:45:33.463Z,8.39
2023-03-19T03:48:04.301Z,8.37
2023-03-19T03:50:35.155Z,8.35
2023-03-19T03:53:06.025Z,8.33
2023-03-19T03:55:37.037Z,8.34
2023-03-19T03:58:07.864Z,8.36
2023-03-19T04:00:38.648Z,8.36
2023-03-19T04:03:09.492Z,8.39
2023-03-19T04:05:40.731Z,8.38
2023-03-19T04:08:12.281Z,8.38
2023-03-19T04:10:43.853Z,8.37
2023-03-19T04:13:14.789Z,8.36
2023-03-19T04:15:45.858Z,8.34
2023-03-19T04:18:16.593Z,8.33
2023-03-19T04:20:47.837Z,8.34
2023-03-19T04:23:18.565Z,8.35
2023-03-19T04:25:49.401Z,8.36
2023-03-19T04:28:20.412Z,8.35
2023-03-19T04:30:51.281Z,8.32
2023-03-19T04:33:22.132Z,8.32
2023-03-19T04:35:53.032Z,8.32
2023-03-19T04:38:24.176Z,8.32
2023-03-19T04:40:55.057Z,8.31
2023-03-19T04:43:25.867Z,8.32
2023-03-19T04:45:57.110Z,8.31
2023-03-19T04:48:27.766Z,8.31
2023-03-19T04:50:58.378Z,8.32
2023-03-19T04:53:29.046Z,8.32
2023-03-19T04:55:59.881Z,8.31
2023-03-19T04:58:31.049Z,8.30
2023-03-19T05:01:01.882Z,8.29
2023-03-19T05:03:32.960Z,8.28
2023-03-19T05:06:04.248Z,8.28
2023-03-19T05:08:35.162Z,8.26
2023-03-19T05:11:06.205Z,8.23
2023-03-19T05:13:37.013Z,8.19
2023-03-19T05:16:08.176Z,8.18
2023-03-19T05:18:41.241Z,8.17
2023-03-19T05:21:13.773Z,8.18
2023-03-19T05:23:45.244Z,8.19
2023-03-19T05:26:16.845Z,8.18
2023-03-19T05:28:47.824Z,8.18
2023-03-19T05:31:18.738Z,8.18
2023-03-19T05:33:49.716Z,8.19
2023-03-19T05:36:20.708Z,8.20
2023-03-19T05:38:51.526Z,8.20
2023-03-19T05:41:22.420Z,8.21
2023-03-19T05:43:53.515Z,8.19
2023-03-19T05:46:24.646Z,8.17
2023-03-19T05:48:55.662Z,8.17
2023-03-19T05:51:26.613Z,8.19
2023-03-19T05:53:57.409Z,8.21
2023-03-19T05:56:28.460Z,8.23
2023-03-19T05:58:59.400Z,8.24
2023-03-19T06:01:30.271Z,8.27
2023-03-19T06:04:01.475Z,8.29
2023-03-19T06:06:33.083Z,8.33
2023-03-19T06:09:04.041Z,8.36
2023-03-19T06:11:34.950Z,8.43
2023-03-19T06:14:06.016Z,8.50
2023-03-19T06:16:37.601Z,8.59
2023-03-19T06:19:08.743Z,8.73
2023-03-19T06:21:39.588Z,8.87
2023-03-19T06:24:10.696Z,8.99
2023-03-19T06:26:42.066Z,9.09
2023-03-19T06:29:13.059Z,9.23
2023-03-19T06:31:44.301Z,9.36
2023-03-19T06:34:15.220Z,9.51
2023-03-19T06:36:46.166Z,9.64
2023-03-19T06:39:17.075Z,9.78
2023-03-19T06:41:50.508Z,9.93
2023-03-19T06:44:21.396Z,10.10
2023-03-19T06:46:52.581Z,10.28
2023-03-19T06:49:23.832Z,10.44
2023-03-19T06:51:54.684Z,10.57
2023-03-19T06:54:25.817Z,10.63
2023-03-19T06:56:56.639Z,10.66
2023-03-19T06:59:27.536Z,10.75
2023-03-19T07:01:58.500Z,10.90
2023-03-19T07:04:29.352Z,11.01
2023-03-19T07:07:00.292Z,11.13
2023-03-19T07:09:31.297Z,11.23
2023-03-19T07:12:02.229Z,11.30
2023-03-19T07:14:33.464Z,11.31
2023-03-19T07:17:04.461Z,11.26
2023-03-19T07:19:35.558Z,11.12
2023-03-19T07:22:06.851Z,10.97
2023-03-19T07:24:37.745Z,10.85
2023-03-19T07:27:08.874Z,10.79
2023-03-19T07:29:39.638Z,10.76
2023-03-19T07:32:10.949Z,10.77
2023-03-19T07:34:41.913Z,10.75
2023-03-19T07:37:13.168Z,10.74
2023-03-19T07:39:44.019Z,10.76
2023-03-19T07:42:15.061Z,10.81
2023-03-19T07:44:45.900Z,10.84
2023-03-19T07:47:28.474Z,10.88
2023-03-19T07:50:00.549Z,10.92
2023-03-19T07:52:31.517Z,10.93
2023-03-19T07:55:02.439Z,10.91
2023-03-19T07:57:33.287Z,10.93
2023-03-19T08:00:04.903Z,10.97
2023-03-19T08:02:35.724Z,10.98
2023-03-19T08:05:06.892Z,10.97
2023-03-19T08:07:37.911Z,10.96
2023-03-19T08:10:09.699Z,11.00
2023-03-19T08:12:42.275Z,10.98
2023-03-19T08:15:13.673Z,11.02
2023-03-19T08:17:44.563Z,11.05
2023-03-19T08:20:17.044Z,11.02
2023-03-19T08:22:48.244Z,10.99
2023-03-19T08:25:19.707Z,10.99
2023-03-19T08:27:50.708Z,10.94
2023-03-19T08:30:21.591Z,10.92
2023-03-19T08:32:52.378Z,10.90
2023-03-19T08:35:23.051Z,10.86
2023-03-19T08:37:53.788Z,10.86
2023-03-19T08:40:24.520Z,10.98
2023-03-19T08:42:55.784Z,11.10
2023-03-19T08:45:26.513Z,11.21
2023-03-19T08:47:58.004Z,11.26
2023-03-19T08:50:28.652Z,11.27
2023-03-19T08:52:59.410Z,11.22
2023-03-19T08:55:30.016Z,11.15
2023-03-19T08:58:00.712Z,11.19
2023-03-19T09:00:31.440Z,11.15
2023-03-19T09:03:02.178Z,11.21
2023-03-19T09:05:32.913Z,11.33
2023-03-19T09:08:03.455Z,11.41
2023-03-19T09:10:34.482Z,11.45
2023-03-19T09:13:05.399Z,11.46
2023-03-19T09:15:36.416Z,11.51
2023-03-19T09:18:07.387Z,11.66
2023-03-19T09:20:38.096Z,11.79
2023-03-19T09:23:08.802Z,11.85
2023-03-19T09:25:39.572Z,11.92
2023-03-19T09:28:10.692Z,12.01
2023-03-19T09:30:41.292Z,12.22
2023-03-19T09:33:12.347Z,12.50
2023-03-19T09:35:43.604Z,12.93
2023-03-19T09:38:14.490Z,13.31
2023-03-19T09:40:45.954Z,13.55
2023-03-19T09:43:22.990Z,13.91
2023-03-19T09:45:54.595Z,14.35
2023-03-19T09:48:29.025Z,14.56
2023-03-19T09:51:00.602Z,14.79
2023-03-19T09:53:32.702Z,14.99
2023-03-19T09:56:03.480Z,15.13
2023-03-19T09:58:35.286Z,15.46
2023-03-19T10:01:06.695Z,16.02
2023-03-19T10:03:44.352Z,16.41
2023-03-19T10:06:23.920Z,16.70
2023-03-19T10:09:01.296Z,17.20
2023-03-19T10:11:35.466Z,17.48
2023-03-19T10:21:09.112Z,17.77
2023-03-19T10:23:45.807Z,18.06
2023-03-19T10:26:17.109Z,18.38
2023-03-19T10:28:51.190Z,18.39
2023-03-19T10:31:29.366Z,18.43
2023-03-19T10:34:03.478Z,18.38
2023-03-19T10:36:35.204Z,18.40
2023-03-19T10:39:08.080Z,18.56
2023-03-19T10:41:45.618Z,18.63
2023-03-19T10:44:18.764Z,19.00
2023-03-19T10:46:49.642Z,19.33
2023-03-19T10:49:20.576Z,19.48
2023-03-19T10:51:51.372Z,19.82
2023-03-19T10:54:23.209Z,20.24
2023-03-19T10:56:56.094Z,20.36
2023-03-19T10:59:28.155Z,20.39
2023-03-19T11:01:59.506Z,20.79
2023-03-19T11:04:32.421Z,21.16
2023-03-19T11:07:07.624Z,21.17
2023-03-19T11:09:39.787Z,21.40
2023-03-19T11:12:17.372Z,21.60
2023-03-19T11:14:49.106Z,21.68
2023-03-19T11:17:22.081Z,21.49
2023-03-19T11:19:53.742Z,21.69
2023-03-19T11:22:25.146Z,22.06
2023-03-19T11:24:56.705Z,22.51
2023-03-19T11:27:31.528Z,22.68
2023-03-19T11:30:02.338Z,22.78
2023-03-19T11:32:46.847Z,22.82
2023-03-19T11:35:18.944Z,22.97
2023-03-19T11:37:53.185Z,22.75
2023-03-19T11:40:25.934Z,22.25
2023-03-19T11:43:00.523Z,22.23
2023-03-19T11:45:33.598Z,22.05
2023-03-19T11:48:20.293Z,22.03
2023-03-19T11:50:52.488Z,22.00
2023-03-19T11:53:24.959Z,22.21
2023-03-19T11:55:58.580Z,22.45
2023-03-19T11:58:34.518Z,22.64
2023-03-19T12:01:06.501Z,22.90
2023-03-19T12:03:59.563Z,23.20
2023-03-19T12:06:37.006Z,23.49
2023-03-19T12:09:09.059Z,23.59
2023-03-19T12:11:41.454Z,23.80
2023-03-19T12:14:15.017Z,23.69
2023-03-19T12:16:50.128Z,23.60
2023-03-19T12:19:33.337Z,23.63
2023-03-19T12:22:10.606Z,23.81
2023-03-19T12:24:44.083Z,23.99
2023-03-19T12:27:19.433Z,23.98
2023-03-19T12:29:52.439Z,23.56
2023-03-19T12:32:26.460Z,22.99
2023-03-19T12:34:57.822Z,22.72
2023-03-19T12:37:29.773Z,22.76
2023-03-19T12:40:07.744Z,22.85
2023-03-19T12:42:39.361Z,23.07
2023-03-19T12:45:16.668Z,23.35
2023-03-19T12:47:47.511Z,23.41
2023-03-19T12:50:18.597Z,23.45
2023-03-19T12:52:49.963Z,23.23
2023-03-19T12:55:23.547Z,23.26
2023-03-19T12:57:55.120Z,23.37
2023-03-19T13:00:30.274Z,23.42
2023-03-19T13:03:04.290Z,23.39
2023-03-19T13:05:36.471Z,23.40
2023-03-19T13:08:08.678Z,23.18
2023-03-19T13:10:39.523Z,23.09
2023-03-19T13:13:13.674Z,23.39
2023-03-19T13:15:44.895Z,23.57
2023-03-19T13:18:18.610Z,23.38
2023-03-19T13:20:58.491Z,23.11
2023-03-19T13:23:32.421Z,23.00
2023-03-19T13:26:04.747Z,22.98
2023-03-19T13:28:36.766Z,22.99
2023-03-19T13:31:08.258Z,23.09
2023-03-19T13:33:39.370Z,23.34
2023-03-19T13:36:11.644Z,23.77
2023-03-19T13:38:43.100Z,24.04
2023-03-19T13:41:27.601Z,23.80
2023-03-19T13:43:58.444Z,23.46
2023-03-19T13:46:34.251Z,23.18
2023-03-19T13:49:22.208Z,23.08
2023-03-19T13:51:54.490Z,22.87
2023-03-19T13:54:35.435Z,22.58
2023-03-19T13:57:18.657Z,22.41
2023-03-19T13:59:50.429Z,22.20
2023-03-19T14:02:40.588Z,22.16
2023-03-19T14:05:18.176Z,22.31
2023-03-19T14:07:53.072Z,22.35
2023-03-19T14:10:25.403Z,22.53
2023-03-19T14:13:03.630Z,22.47
2023-03-19T14:15:34.674Z,22.62
2023-03-19T14:18:14.733Z,22.86
2023-03-19T14:20:52.251Z,22.97
2023-03-19T14:23:38.520Z,22.92
2023-03-19T14:26:14.504Z,22.85
2023-03-19T14:28:49.707Z,22.90
2023-03-19T14:31:25.141Z,22.73
2023-03-19T14:33:57.466Z,22.70
2023-03-19T14:36:28.400Z,22.65
2023-03-19T14:38:59.911Z,22.47
2023-03-19T14:41:33.083Z,22.15
2023-03-19T14:44:22.305Z,21.74
2023-03-19T14:47:04.496Z,21.43
2023-03-19T14:49:49.016Z,21.18
2023-03-19T14:52:30.838Z,21.00
2023-03-19T14:55:04.504Z,20.51
2023-03-19T14:57:35.913Z,20.05
2023-03-19T15:00:10.039Z,19.61
2023-03-19T15:02:44.456Z,19.33
2023-03-19T15:05:19.105Z,19.11
2023-03-19T15:07:52.146Z,19.11
2023-03-19T15:10:23.256Z,19.11
2023-03-19T15:12:59.846Z,19.12
2023-03-19T15:15:36.631Z,19.08
2023-03-19T15:18:09.126Z,19.05
2023-03-19T15:20:40.524Z,18.97
2023-03-19T15:23:25.865Z,18.94
2023-03-19T15:25:58.074Z,18.87
2023-03-19T15:28:32.320Z,18.85
2023-03-19T15:31:19.496Z,18.84
2023-03-19T15:33:54.931Z,18.76
2023-03-19T15:36:26.420Z,18.53
2023-03-19T15:38:57.617Z,18.40
2023-03-19T15:41:28.675Z,18.38
2023-03-19T15:43:59.454Z,18.38
2023-03-19T15:46:30.956Z,18.35
2023-03-19T15:49:03.755Z,18.27
2023-03-19T15:51:34.476Z,18.22
2023-03-19T15:54:05.704Z,18.07
2023-03-19T15:56:36.616Z,17.94
2023-03-19T15:59:07.921Z,17.84
2023-03-19T16:01:38.816Z,17.80
2023-03-19T16:04:09.951Z,17.75
2023-03-19T16:06:41.089Z,17.67
2023-03-19T16:09:17.081Z,17.53
2023-03-19T16:11:47.785Z,17.43
2023-03-19T16:14:24.330Z,17.27
2023-03-19T16:17:00.727Z,17.20
2023-03-19T16:19:36.417Z,17.18
2023-03-19T16:22:13.199Z,17.14
2023-03-19T16:24:44.997Z,17.06
2023-03-19T16:27:16.122Z,17.02
2023-03-19T16:29:47.031Z,16.95
2023-03-19T16:32:22.205Z,16.93
2023-03-19T16:34:53.599Z,16.93
2023-03-19T16:37:40.549Z,16.90
2023-03-19T16:40:28.233Z,16.85
2023-03-19T16:42:59.759Z,16.77
2023-03-19T16:45:31.133Z,16.61
2023-03-19T16:48:03.542Z,16.54
2023-03-19T16:50:35.140Z,16.51
2023-03-19T16:53:06.625Z,16.47
2023-03-19T16:55:37.711Z,16.46
2023-03-19T16:58:09.170Z,16.45
2023-03-19T17:00:40.039Z,16.37
2023-03-19T17:03:12.798Z,16.20
2023-03-19T17:05:43.614Z,16.09
2023-03-19T17:08:14.730Z,16.01
2023-03-19T17:10:49.312Z,15.92
2023-03-19T17:13:31.564Z,15.87
2023-03-19T17:16:03.376Z,15.82
2023-03-19T17:18:36.511Z,15.80
2023-03-19T17:21:08.165Z,15.77
2023-03-19T17:23:39.293Z,15.75
2023-03-19T17:26:16.904Z,15.75
2023-03-19T17:28:47.789Z,15.70
2023-03-19T17:31:26.162Z,15.66
2023-03-19T17:33:58.523Z,15.65
2023-03-19T17:36:29.356Z,15.63
2023-03-19T17:39:00.492Z,15.61
2023-03-19T17:41:32.959Z,15.58
2023-03-19T17:44:06.438Z,15.54
2023-03-19T17:46:39.819Z,15.51
2023-03-19T17:49:14.800Z,15.48
2023-03-19T17:51:45.749Z,15.43
2023-03-19T17:54:16.681Z,15.34
2023-03-19T17:56:47.611Z,15.27
2023-03-19T17:59:18.553Z,15.20
2023-03-19T18:01:49.424Z,15.14
2023-03-19T18:04:21.862Z,15.11
2023-03-19T18:06:54.550Z,15.10
2023-03-19T18:09:27.488Z,15.08
2023-03-19T18:11:58.575Z,15.07
2023-03-19T18:14:30.473Z,15.07
2023-03-19T18:17:01.848Z,15.04
2023-03-19T18:19:34.463Z,15.03
2023-03-19T18:22:08.476Z,15.00
2023-03-19T18:24:39.510Z,14.95
2023-03-19T18:27:11.753Z,14.90
2023-03-19T18:29:44.569Z,14.83
2023-03-19T18:32:18.161Z,14.76
2023-03-19T18:34:51.583Z,14.72
2023-03-19T18:37:23.168Z,14.66
2023-03-19T18:39:56.926Z,14.62
2023-03-19T18:42:28.890Z,14.58
2023-03-19T18:45:01.472Z,14.53
2023-03-19T18:47:33.232Z,14.50
2023-03-19T18:50:08.904Z,14.51
2023-03-19T18:52:43.203Z,14.49
2023-03-19T18:55:27.924Z,14.46
2023-03-19T18:58:01.852Z,14.44
2023-03-19T19:08:34.619Z,14.14
2023-03-19T19:11:06.178Z,14.06
2023-03-19T19:13:53.382Z,14.02
2023-03-19T19:16:28.249Z,14.02
2023-03-19T19:18:59.153Z,14.03
2023-03-19T19:21:30.168Z,14.01
2023-03-19T19:24:00.967Z,13.97
2023-03-19T19:26:31.943Z,13.94
2023-03-19T19:29:03.394Z,13.91
2023-03-19T19:31:35.808Z,13.86
2023-03-19T19:34:06.683Z,13.78
2023-03-19T19:36:37.516Z,13.71
2023-03-19T19:39:08.468Z,13.66
2023-03-19T19:41:39.389Z,13.62
2023-03-19T19:44:11.506Z,13.57
2023-03-19T19:46:42.304Z,13.51
2023-03-19T19:49:14.905Z,13.47
2023-03-19T19:51:45.956Z,13.44
2023-03-19T19:54:16.961Z,13.42
2023-03-19T19:56:47.767Z,13.39
2023-03-19T19:59:18.856Z,13.34
2023-03-19T20:01:49.672Z,13.28
2023-03-19T20:04:22.011Z,13.24
2023-03-19T20:06:52.985Z,13.21
2023-03-19T20:09:24.074Z,13.20
2023-03-19T20:11:55.627Z,13.20
2023-03-19T20:14:26.728Z,13.17
2023-03-19T20:16:59.475Z,13.15
2023-03-19T20:19:30.442Z,13.13
2023-03-19T20:22:01.781Z,13.07
2023-03-19T20:24:32.755Z,13.05
2023-03-19T20:27:04.002Z,13.02
2023-03-19T20:29:35.505Z,13.01
2023-03-19T20:32:06.682Z,12.98
2023-03-19T20:34:39.607Z,12.97
2023-03-19T20:37:11.274Z,12.95
2023-03-19T20:39:42.228Z,12.92
2023-03-19T20:42:13.579Z,12.87
2023-03-19T20:44:44.585Z,12.86
2023-03-19T20:47:18.230Z,12.81
2023-03-19T20:49:49.270Z,12.78
2023-03-19T20:58:29.821Z,12.76
2023-03-19T21:01:01.229Z,12.73
2023-03-19T21:03:32.622Z,12.74
2023-03-19T21:06:04.491Z,12.73
2023-03-19T21:08:35.766Z,12.71
2023-03-19T21:11:09.050Z,12.67
2023-03-19T21:13:39.894Z,12.67
2023-03-19T21:16:12.408Z,12.65
2023-03-19T21:18:43.338Z,12.62
2023-03-19T21:21:15.855Z,12.56
2023-03-19T21:23:50.491Z,12.51
2023-03-19T21:26:23.375Z,12.45
2023-03-19T21:28:54.849Z,12.41
2023-03-19T21:31:27.150Z,12.37
2023-03-19T21:33:58.670Z,12.34
2023-03-19T21:36:29.576Z,12.30
2023-03-19T21:39:01.470Z,12.27
2023-03-19T21:41:33.535Z,12.24
2023-03-19T21:44:05.803Z,12.21
2023-03-19T21:46:37.025Z,12.18
2023-03-19T21:49:11.399Z,12.14
2023-03-19T21:51:43.995Z,12.11
2023-03-19T21:54:15.849Z,12.08
2023-03-19T21:56:46.975Z,12.05
2023-03-19T21:59:18.464Z,12.02
2023-03-19T22:01:49.491Z,11.99
2023-03-19T22:04:20.500Z,11.96
2023-03-19T22:06:51.609Z,11.91
2023-03-19T22:09:23.822Z,11.88
2023-03-19T22:11:54.627Z,11.86
2023-03-19T22:14:26.758Z,11.83
2023-03-19T22:16:57.784Z,11.81
2023-03-19T22:19:29.379Z,11.76
2023-03-19T22:22:00.262Z,11.73
2023-03-19T22:24:31.067Z,11.70
2023-03-19T22:27:01.984Z,11.67
2023-03-19T22:29:32.812Z,11.64
2023-03-19T22:32:03.772Z,11.59
2023-03-19T22:34:36.681Z,11.56
2023-03-19T22:37:09.018Z,11.52
2023-03-19T22:39:39.840Z,11.48
2023-03-19T22:42:10.780Z,11.44
2023-03-19T22:44:41.611Z,11.40
2023-03-19T22:47:16.368Z,11.37
2023-03-19T22:49:47.282Z,11.34
2023-03-19T22:52:18.295Z,11.29
2023-03-19T22:54:53.182Z,11.22
2023-03-19T22:57:24.049Z,11.16
2023-03-19T22:59:54.962Z,11.12
2023-03-19T23:02:26.055Z,11.08
2023-03-19T23:04:56.891Z,11.02
2023-03-19T23:07:27.720Z,10.96
2023-03-19T23:10:00.935Z,10.88
2023-03-19T23:12:31.826Z,10.86
2023-03-19T23:15:02.664Z,10.85
2023-03-19T23:17:33.627Z,10.83
2023-03-19T23:20:07.706Z,10.81
2023-03-19T23:22:38.701Z,10.81
2023-03-19T23:25:13.452Z,10.80
2023-03-19T23:27:44.361Z,10.82
2023-03-19T23:30:27.866Z,10.82
2023-03-19T23:32:59.093Z,10.78
2023-03-19T23:35:30.838Z,10.76
2023-03-19T23:38:01.912Z,10.74
2023-03-19T23:40:33.262Z,10.72
2023-03-19T23:43:04.233Z,10.71
2023-03-19T23:45:36.852Z,10.71
2023-03-19T23:48:08.948Z,10.70
2023-03-19T23:50:40.031Z,10.65
2023-03-19T23:53:12.407Z,10.61
2023-03-19T23:55:43.249Z,10.58
2023-03-19T23:58:14.199Z,10.54
